»·PEaware :: XOJ557 KSLC-KRIF

XOJ557 :: KSLC-KRIF

FLIGHT INFORMATION

Flight Status: Arrived
Operator:
XOJET
More flights by this operator :: More flights under this callsign
Pilot: Alex K. (14822)
Aircraft: BOMBARDIER BD-100 CHALLENGER 300
(CL30)
More flights by this aircraft type
Origin: KSLC Salt Lake City Intl
United States
Destination: KRIF Richfield Mun
United States
More flights between these airports :: More routes between these airports
Route: +SLC4 POOMA
File this flight plan on PilotEdge
Remarks:
Altitude:
(Current/Filed)
16,000ft
Speed:
(Current/Filed)
320kts
Departed: 16-Oct-18 12:51 PM
Arrived: 16-Oct-18 02:00 PM
Distance/Time
Traveled:
124nm/1:09
Distance/Time
To Go:
Arrived

Flight Plot

Page will automatically refresh every two minutes.

Flight plan parsing failed; only flown route is shown


Map Options




Map Legend


Flown Route
Filed Route
Departure Airport
Arrival Airport
Navaid (VOR, NDB)
Fix

Horizontal Profiles

Position Reports

Time Latitude Longitude Heading Altitude Ground
Speed
16-Oct-18 12:34 40.779679 -111.958387 180 4234ft 0kts
16-Oct-18 12:35 40.779679 -111.958387 180 4234ft 0kts
16-Oct-18 12:36 40.779679 -111.958387 180 4234ft 0kts
16-Oct-18 12:37 40.779679 -111.958387 180 4234ft 0kts
16-Oct-18 12:38 40.779679 -111.958387 180 4234ft 0kts
16-Oct-18 12:39 40.779679 -111.958387 180 4234ft 0kts
16-Oct-18 12:40 40.779679 -111.958387 180 4234ft 0kts
16-Oct-18 12:41 40.779679 -111.958387 180 4234ft 0kts
16-Oct-18 12:42 40.779679 -111.958387 180 4234ft 0kts
16-Oct-18 12:43 40.779679 -111.958387 180 4234ft 0kts
16-Oct-18 12:44 40.779679 -111.958387 180 4234ft 0kts
16-Oct-18 12:45 40.779679 -111.958387 180 4234ft 0kts
16-Oct-18 12:46 40.779679 -111.958387 180 4234ft 0kts
16-Oct-18 12:47 40.779537 -111.958439 212 4234ft 1kts
16-Oct-18 12:48 40.778837 -111.959382 265 4233ft 0kts
16-Oct-18 12:49 40.778836 -111.959387 265 4233ft 1kts
16-Oct-18 12:50 40.777145 -111.960622 179 4234ft 16kts
16-Oct-18 12:51 40.773996 -111.960627 180 4234ft 6kts
16-Oct-18 12:52 40.772754 -111.961678 293 4234ft 9kts
16-Oct-18 12:53 40.802710 -111.966135 333 5466ft 230kts
16-Oct-18 12:54 40.867640 -112.017362 331 10011ft 314kts
16-Oct-18 12:55 40.914413 -112.119096 270 14984ft 366kts
16-Oct-18 12:56 40.905253 -112.262013 239 16009ft 406kts
16-Oct-18 12:57 40.811564 -112.323142 191 16020ft 395kts
16-Oct-18 12:58 40.706838 -112.359686 191 16020ft 398kts
16-Oct-18 12:59 40.603823 -112.349591 158 16020ft 385kts
16-Oct-18 13:00 40.502672 -112.309131 160 16019ft 386kts
16-Oct-18 13:01 40.400904 -112.270362 160 16019ft 387kts
16-Oct-18 13:02 40.300895 -112.232862 160 16018ft 372kts
16-Oct-18 13:03 40.203101 -112.196395 160 16018ft 362kts
16-Oct-18 13:04 40.106930 -112.160664 160 16018ft 357kts
16-Oct-18 13:05 40.010656 -112.124983 160 16021ft 368kts
16-Oct-18 13:06 39.910991 -112.088184 160 16018ft 380kts
16-Oct-18 13:07 39.810303 -112.051127 160 16014ft 386kts
16-Oct-18 13:08 39.708427 -112.013749 160 15988ft 390kts
16-Oct-18 13:09 39.605176 -111.975984 160 15977ft 391kts
16-Oct-18 13:10 39.523040 -111.946021 160 15966ft 393kts
16-Oct-18 13:11 39.442288 -111.916649 160 15961ft 387kts
16-Oct-18 13:28 40.779714 -111.958702 180 4234ft 0kts
16-Oct-18 13:29 40.779713 -111.958702 180 4233ft 0kts
16-Oct-18 13:30 40.779713 -111.958702 180 4233ft 0kts
16-Oct-18 13:31 40.779119 -111.959119 209 4233ft 8kts
16-Oct-18 13:32 40.778113 -111.960531 208 4233ft 11kts
16-Oct-18 13:33 40.773585 -111.960624 179 4233ft 16kts
16-Oct-18 13:34 40.775065 -111.962080 0 4234ft 77kts
16-Oct-18 13:35 40.821528 -111.989323 306 7453ft 276kts
16-Oct-18 13:36 40.842650 -112.092759 244 12680ft 354kts
16-Oct-18 13:37 40.761213 -112.158226 191 15955ft 396kts
16-Oct-18 13:38 40.655735 -112.180476 168 16024ft 384kts
16-Oct-18 13:39 40.549688 -112.162707 170 16013ft 387kts
16-Oct-18 13:40 40.442649 -112.148096 171 16008ft 388kts
16-Oct-18 13:41 40.335343 -112.134342 171 16004ft 389kts
16-Oct-18 13:42 40.227708 -112.120807 171 16002ft 389kts
16-Oct-18 13:43 40.120448 -112.107415 171 16002ft 389kts
16-Oct-18 13:44 40.012827 -112.094029 171 16001ft 390kts
16-Oct-18 13:45 39.905132 -112.080680 171 16000ft 390kts
16-Oct-18 13:46 39.801001 -112.070756 177 15992ft 393kts
16-Oct-18 13:47 39.693264 -112.056357 168 15965ft 390kts
16-Oct-18 13:48 39.585967 -112.037154 168 15958ft 390kts
16-Oct-18 13:49 39.478559 -112.017896 168 15954ft 390kts
16-Oct-18 13:50 39.372024 -111.996317 154 15931ft 384kts
16-Oct-18 13:51 39.280645 -111.935139 148 15875ft 345kts
16-Oct-18 13:52 39.197435 -111.877875 148 13977ft 337kts
16-Oct-18 13:53 39.118598 -111.823525 149 12648ft 307kts
16-Oct-18 13:54 39.041913 -111.796076 204 12654ft 316kts
16-Oct-18 13:55 38.971688 -111.859091 215 11323ft 307kts
16-Oct-18 13:56 38.906188 -111.926290 222 9891ft 291kts
16-Oct-18 13:57 38.874101 -111.965373 224 9400ft 238kts
16-Oct-18 13:58 38.830939 -112.019219 224 8614ft 175kts
16-Oct-18 13:59 38.800715 -112.052893 214 7602ft 172kts
16-Oct-18 14:00 38.763132 -112.082813 210 5972ft 157kts
16-Oct-18 14:01 38.730203 -112.104110 207 5306ft 62kts
16-Oct-18 14:02 38.728406 -112.103726 25 5308ft 0kts
16-Oct-18 14:03 38.728406 -112.103726 25 5308ft 0kts
16-Oct-18 14:04 38.728406 -112.103726 25 5308ft 0kts
16-Oct-18 14:05 38.728406 -112.103726 25 5308ft 0kts

Navigation Log

Ident Type
Flight plan parsing failed, navigation log unavailable